Terminal Aerodrome Forecast
Issued by NWS Newport/Morehead City, NC

Home | Current Version | Previous Version | Text Only | Print | Product List | Glossary Off
Versions: 1 2 3 4 5 6 7 8 9 10 11 12 13 14 15 16 17 18

565
FTUS42 KMHX 261156 CCA
TAFEWN
TAF COR
KEWN 261156Z 2612/2712 25005KT P6SM SCT007 BKN015
     FM261500 28008KT P6SM SCT040
     FM270000 20003KT P6SM FEW040=

USA.gov is the U.S. government's official web portal to all federal, state and local government web resources and services.